createdAt,value
2022-12-08T00:02:22.321Z,49.47
2022-12-08T00:05:41.670Z,48.67
2022-12-08T00:09:13.636Z,46.78
2022-12-08T00:12:06.011Z,43.75
2022-12-08T00:14:55.450Z,44.10
2022-12-08T00:17:36.574Z,42.53
2022-12-08T00:20:12.025Z,41.00
2022-12-08T00:22:55.045Z,42.50
2022-12-08T00:25:36.071Z,36.38
2022-12-08T00:28:16.165Z,41.75
2022-12-08T00:31:03.695Z,41.00
2022-12-08T00:34:01.118Z,40.10
2022-12-08T00:36:45.485Z,39.63
2022-12-08T00:39:29.076Z,39.80
2022-12-08T00:42:18.771Z,39.65
2022-12-08T00:44:59.744Z,38.55
2022-12-08T00:47:49.638Z,37.55
2022-12-08T00:50:33.225Z,33.80
2022-12-08T00:55:55.259Z,34.47
2022-12-08T00:58:38.289Z,35.53
2022-12-08T01:01:33.628Z,34.70
2022-12-08T01:04:30.250Z,36.87
2022-12-08T01:07:16.421Z,33.80
2022-12-08T01:12:35.892Z,34.30
2022-12-08T01:15:20.109Z,42.22
2022-12-08T01:18:05.111Z,48.85
2022-12-08T01:20:45.749Z,48.25
2022-12-08T01:23:37.663Z,43.13
2022-12-08T01:26:23.154Z,37.83
2022-12-08T01:29:15.209Z,34.88
2022-12-08T01:31:59.812Z,33.55
2022-12-08T01:34:47.681Z,33.53
2022-12-08T01:37:27.756Z,32.30
2022-12-08T01:40:06.853Z,33.03
2022-12-08T01:42:53.558Z,31.00
2022-12-08T01:45:34.924Z,33.10
2022-12-08T01:48:34.210Z,32.05
2022-12-08T01:51:15.714Z,30.55
2022-12-08T01:53:51.862Z,30.83
2022-12-08T01:56:47.646Z,33.35
2022-12-08T01:59:34.798Z,32.13
2022-12-08T02:02:32.618Z,34.17
2022-12-08T02:05:31.568Z,32.13
2022-12-08T02:08:16.453Z,33.63
2022-12-08T02:10:50.518Z,31.45
2022-12-08T02:13:32.618Z,31.88
2022-12-08T02:16:42.368Z,31.05
2022-12-08T02:19:41.543Z,33.50
2022-12-08T02:22:29.886Z,32.33
2022-12-08T02:25:17.844Z,35.15
2022-12-08T02:28:15.237Z,32.13
2022-12-08T02:32:02.704Z,32.95
2022-12-08T02:34:53.252Z,32.55
2022-12-08T02:38:11.645Z,30.75
2022-12-08T02:41:13.776Z,31.15
2022-12-08T02:44:16.319Z,33.38
2022-12-08T02:47:06.718Z,32.92
2022-12-08T02:49:47.538Z,32.83
2022-12-08T02:52:43.852Z,31.48
2022-12-08T02:55:39.491Z,30.83
2022-12-08T02:58:53.997Z,31.30
2022-12-08T03:01:54.052Z,30.95
2022-12-08T03:04:51.197Z,30.00
2022-12-08T03:07:34.385Z,31.65
2022-12-08T03:10:47.247Z,33.47
2022-12-08T03:13:35.767Z,33.80
2022-12-08T03:16:22.647Z,35.25
2022-12-08T03:19:20.029Z,36.13
2022-12-08T03:22:05.430Z,35.47
2022-12-08T03:24:43.794Z,33.67
2022-12-08T03:27:31.214Z,31.95
2022-12-08T03:30:09.305Z,39.03
2022-12-08T03:33:14.661Z,34.65
2022-12-08T03:35:57.486Z,34.45
2022-12-08T03:38:52.543Z,36.72
2022-12-08T03:41:35.823Z,32.85
2022-12-08T03:44:21.710Z,31.70
2022-12-08T03:49:39.988Z,30.48
2022-12-08T03:52:26.441Z,33.65
2022-12-08T03:55:04.355Z,35.90
2022-12-08T03:57:42.289Z,34.67
2022-12-08T04:00:20.101Z,37.58
2022-12-08T04:03:00.623Z,36.40
2022-12-08T04:05:44.250Z,35.00
2022-12-08T04:11:19.193Z,35.55
2022-12-08T04:14:03.060Z,39.45
2022-12-08T04:16:53.172Z,38.92
2022-12-08T04:19:40.127Z,37.58
2022-12-08T04:22:20.706Z,39.45
2022-12-08T04:25:09.715Z,37.35
2022-12-08T04:27:53.331Z,37.40
2022-12-08T04:30:39.477Z,32.53
2022-12-08T04:33:25.039Z,36.10
2022-12-08T04:36:09.801Z,35.72
2022-12-08T04:38:52.735Z,38.95
2022-12-08T04:41:51.194Z,37.03
2022-12-08T04:44:33.036Z,39.53
2022-12-08T04:47:21.073Z,34.55
2022-12-08T04:50:08.291Z,37.53
2022-12-08T04:52:49.270Z,39.20
2022-12-08T04:55:33.824Z,39.75
2022-12-08T04:58:17.739Z,39.47
2022-12-08T05:00:56.255Z,35.85
2022-12-08T05:03:36.675Z,38.00
2022-12-08T05:06:19.183Z,38.65
2022-12-08T05:09:04.799Z,34.28
2022-12-08T05:11:46.946Z,37.30
2022-12-08T05:14:30.059Z,35.85
2022-12-08T05:17:10.600Z,39.20
2022-12-08T05:19:56.266Z,38.72
2022-12-08T05:22:39.141Z,39.15
2022-12-08T05:25:27.627Z,34.90
2022-12-08T05:28:39.694Z,29.08
2022-12-08T05:31:11.226Z,37.75
2022-12-08T05:33:53.347Z,35.58
2022-12-08T05:36:45.619Z,34.28
2022-12-08T05:39:36.310Z,36.78
2022-12-08T05:42:24.582Z,35.47
2022-12-08T05:45:13.328Z,36.15
2022-12-08T05:47:56.954Z,33.83
2022-12-08T05:50:40.733Z,37.78
2022-12-08T05:53:29.524Z,36.72
2022-12-08T05:56:35.185Z,37.78
2022-12-08T05:59:19.482Z,38.30
2022-12-08T06:01:57.439Z,41.00
2022-12-08T06:04:54.281Z,41.67
2022-12-08T06:07:38.539Z,42.20
2022-12-08T06:10:22.051Z,42.25
2022-12-08T06:13:05.524Z,41.33
2022-12-08T06:15:51.196Z,29.00
2022-12-08T06:18:32.723Z,37.70
2022-12-08T06:21:14.988Z,36.92
2022-12-08T06:24:01.948Z,37.33
2022-12-08T06:26:56.452Z,33.53
2022-12-08T06:29:43.107Z,35.33
2022-12-08T06:32:27.565Z,36.17
2022-12-08T06:35:13.842Z,34.15
2022-12-08T06:38:02.642Z,35.33
2022-12-08T06:40:52.509Z,35.50
2022-12-08T06:43:35.567Z,36.35
2022-12-08T06:46:15.809Z,34.95
2022-12-08T06:48:56.479Z,38.17
2022-12-08T06:51:34.564Z,37.15
2022-12-08T06:54:26.246Z,36.38
2022-12-08T06:57:07.110Z,41.97
2022-12-08T06:59:48.005Z,46.17
2022-12-08T07:02:26.300Z,44.38
2022-12-08T07:05:07.040Z,45.33
2022-12-08T07:07:47.994Z,49.28
2022-12-08T07:10:34.799Z,46.05
2022-12-08T07:13:09.292Z,52.15
2022-12-08T07:15:56.532Z,51.95
2022-12-08T07:18:34.910Z,50.40
2022-12-08T07:21:23.873Z,52.80
2022-12-08T07:24:13.260Z,49.58
2022-12-08T07:26:51.253Z,56.80
2022-12-08T07:29:45.650Z,51.35
2022-12-08T07:32:30.948Z,53.60
2022-12-08T07:35:05.886Z,53.67
2022-12-08T07:37:55.587Z,54.65
2022-12-08T07:40:49.460Z,54.65
2022-12-08T07:43:35.098Z,53.20
2022-12-08T07:46:14.294Z,40.58
2022-12-08T07:48:58.009Z,51.08
2022-12-08T07:51:40.724Z,51.60
2022-12-08T07:54:28.227Z,55.03
2022-12-08T07:57:15.118Z,55.75
2022-12-08T07:59:57.191Z,61.90
2022-12-08T08:02:41.514Z,59.33
2022-12-08T08:05:18.010Z,56.30
2022-12-08T08:08:04.111Z,56.75
2022-12-08T08:10:58.576Z,53.63
2022-12-08T08:13:56.387Z,55.42
2022-12-08T08:16:33.492Z,57.58
2022-12-08T08:19:26.118Z,58.30
2022-12-08T08:22:09.244Z,64.88
2022-12-08T08:25:10.798Z,65.32
2022-12-08T08:27:54.731Z,57.63
2022-12-08T08:30:32.944Z,53.55
2022-12-08T08:33:21.977Z,50.05
2022-12-08T08:36:23.736Z,48.83
2022-12-08T08:39:12.925Z,47.08
2022-12-08T08:41:56.034Z,43.60
2022-12-08T08:44:39.575Z,44.47
2022-12-08T08:47:15.361Z,57.85
2022-12-08T08:50:01.426Z,70.00
2022-12-08T08:52:45.084Z,94.57
2022-12-08T08:55:26.624Z,61.58
2022-12-08T08:58:10.208Z,55.72
2022-12-08T09:00:53.806Z,68.43
2022-12-08T09:03:46.978Z,40.05
2022-12-08T09:06:31.015Z,46.70
2022-12-08T09:09:42.439Z,34.67
2022-12-08T09:12:27.950Z,33.42
2022-12-08T09:15:35.218Z,32.65
2022-12-08T09:18:13.939Z,30.25
2022-12-08T09:20:57.138Z,31.27
2022-12-08T09:23:47.091Z,30.10
2022-12-08T09:26:32.735Z,30.70
2022-12-08T09:29:21.806Z,29.77
2022-12-08T09:32:07.709Z,27.55
2022-12-08T09:34:55.787Z,28.60
2022-12-08T09:37:40.395Z,29.83
2022-12-08T09:40:45.122Z,31.02
2022-12-08T09:44:09.529Z,33.55
2022-12-08T09:46:53.704Z,30.42
2022-12-08T09:49:46.023Z,33.63
2022-12-08T09:52:38.699Z,35.22
2022-12-08T09:55:41.799Z,34.78
2022-12-08T09:58:47.637Z,32.65
2022-12-08T10:01:24.741Z,35.30
2022-12-08T10:04:08.351Z,33.88
2022-12-08T10:06:59.351Z,30.95
2022-12-08T10:09:54.655Z,31.02
2022-12-08T10:12:56.531Z,30.98
2022-12-08T10:16:00.935Z,31.60
2022-12-08T10:18:43.669Z,29.67
2022-12-08T10:21:33.105Z,33.20
2022-12-08T10:24:17.792Z,30.92
2022-12-08T10:27:00.133Z,30.65
2022-12-08T10:29:45.983Z,32.42
2022-12-08T10:32:39.600Z,29.70
2022-12-08T10:35:32.519Z,30.90
2022-12-08T10:38:19.588Z,26.35
2022-12-08T10:41:07.622Z,27.42
2022-12-08T10:44:01.643Z,29.85
2022-12-08T10:46:46.746Z,29.80
2022-12-08T10:49:38.842Z,28.80
2022-12-08T10:52:35.628Z,34.47
2022-12-08T10:55:35.252Z,29.88
2022-12-08T10:58:30.867Z,30.92
2022-12-08T11:01:20.567Z,29.48
2022-12-08T11:04:19.901Z,31.73
2022-12-08T11:07:11.605Z,29.90
2022-12-08T11:10:01.178Z,28.60
2022-12-08T11:12:41.680Z,27.80
2022-12-08T11:15:33.561Z,29.90
2022-12-08T11:18:27.821Z,30.00
2022-12-08T11:21:51.104Z,29.50
2022-12-08T11:24:40.570Z,31.90
2022-12-08T11:27:29.969Z,30.15
2022-12-08T11:30:14.510Z,28.65
2022-12-08T11:33:06.989Z,31.02
2022-12-08T11:36:05.280Z,28.75
2022-12-08T11:39:00.618Z,30.77
2022-12-08T11:41:45.069Z,29.80
2022-12-08T11:44:43.071Z,31.10
2022-12-08T11:47:37.099Z,29.83
2022-12-08T11:50:54.293Z,32.47
2022-12-08T11:53:59.171Z,31.15
2022-12-08T11:56:46.477Z,31.83
2022-12-08T11:59:39.686Z,32.25
2022-12-08T12:02:27.725Z,30.95
2022-12-08T12:06:13.250Z,32.38
2022-12-08T12:09:44.323Z,32.92
2022-12-08T12:12:50.690Z,32.38
2022-12-08T12:15:44.725Z,29.80
2022-12-08T12:18:40.372Z,30.58
2022-12-08T12:21:47.510Z,29.70
2022-12-08T12:24:35.525Z,27.45
2022-12-08T12:27:57.090Z,30.67
2022-12-08T12:31:00.624Z,29.83
2022-12-08T12:33:45.073Z,27.33
2022-12-08T12:36:23.541Z,28.08
2022-12-08T12:39:26.176Z,29.88
2022-12-08T12:42:14.540Z,27.63
2022-12-08T12:45:22.494Z,28.67
2022-12-08T12:48:26.994Z,28.67
2022-12-08T12:51:32.292Z,33.47
2022-12-08T12:54:33.549Z,36.13
2022-12-08T12:57:20.912Z,34.38
2022-12-08T13:00:02.011Z,33.17
2022-12-08T13:02:42.277Z,31.85
2022-12-08T13:05:41.868Z,33.85
2022-12-08T13:08:34.652Z,35.95
2022-12-08T13:11:29.913Z,35.90
2022-12-08T13:14:43.956Z,37.53
2022-12-08T13:17:30.647Z,37.42
2022-12-08T13:20:20.754Z,38.38
2022-12-08T13:23:35.227Z,35.47
2022-12-08T13:27:01.485Z,37.42
2022-12-08T13:29:45.567Z,34.53
2022-12-08T13:33:17.282Z,37.33
2022-12-08T13:36:06.144Z,32.67
2022-12-08T13:38:51.484Z,33.10
2022-12-08T13:41:43.074Z,31.95
2022-12-08T13:48:13.628Z,30.67
2022-12-08T13:58:00.753Z,30.42
2022-12-08T14:00:40.059Z,31.25
2022-12-08T14:03:35.648Z,32.65
2022-12-08T14:06:35.595Z,29.70
2022-12-08T14:09:24.722Z,32.45
2022-12-08T14:12:28.446Z,32.10
2022-12-08T14:15:15.075Z,32.10
2022-12-08T14:18:06.350Z,31.67
2022-12-08T14:24:03.967Z,34.65
2022-12-08T14:26:49.584Z,32.75
2022-12-08T14:29:50.413Z,38.17
2022-12-08T14:32:36.294Z,32.33
2022-12-08T14:35:25.712Z,33.55
2022-12-08T14:38:18.036Z,32.45
2022-12-08T14:41:26.476Z,30.10
2022-12-08T14:44:25.141Z,31.27
2022-12-08T14:47:21.497Z,31.15
2022-12-08T14:50:03.468Z,32.05
2022-12-08T14:52:54.272Z,34.47
2022-12-08T14:55:51.579Z,31.98
2022-12-08T14:58:36.972Z,32.35
2022-12-08T15:01:28.549Z,35.33
2022-12-08T15:04:38.421Z,30.95
2022-12-08T15:07:22.749Z,35.05
2022-12-08T15:10:30.814Z,33.85
2022-12-08T15:13:25.788Z,32.80
2022-12-08T15:16:04.336Z,33.45
2022-12-08T15:19:16.491Z,31.10
2022-12-08T15:22:18.516Z,34.10
2022-12-08T15:27:50.477Z,29.48
2022-12-08T15:30:31.994Z,28.88
2022-12-08T15:33:24.582Z,26.40
2022-12-08T15:36:09.456Z,26.98
2022-12-08T15:38:51.615Z,27.00
2022-12-08T15:41:32.854Z,30.92
2022-12-08T15:44:13.693Z,29.42
2022-12-08T15:47:08.629Z,28.70
2022-12-08T15:49:53.563Z,28.05
2022-12-08T15:52:37.030Z,30.05
2022-12-08T15:55:25.306Z,31.17
2022-12-08T16:01:22.692Z,29.70
2022-12-08T16:07:25.031Z,28.95
2022-12-08T16:10:12.429Z,32.17
2022-12-08T16:13:55.696Z,31.13
2022-12-08T16:16:24.672Z,31.80
2022-12-08T16:19:18.672Z,32.78
2022-12-08T16:22:44.959Z,35.65
2022-12-08T16:25:24.534Z,34.65
2022-12-08T16:28:52.044Z,32.67
2022-12-08T16:31:30.168Z,27.33
2022-12-08T16:34:11.586Z,25.45
2022-12-08T16:37:03.174Z,24.30
2022-12-08T16:39:54.073Z,26.48
2022-12-08T16:42:49.291Z,28.10
2022-12-08T16:45:45.208Z,29.50
2022-12-08T16:48:30.855Z,29.55
2022-12-08T16:51:12.710Z,30.52
2022-12-08T16:54:07.399Z,32.92
2022-12-08T16:56:56.399Z,31.90
2022-12-08T16:59:36.914Z,32.95
2022-12-08T17:02:26.537Z,33.67
2022-12-08T17:05:10.570Z,32.85
2022-12-08T17:07:57.777Z,34.33
2022-12-08T17:10:44.286Z,33.38
2022-12-08T17:13:35.870Z,31.85
2022-12-08T17:16:27.338Z,33.60
2022-12-08T17:19:17.612Z,25.13
2022-12-08T17:22:08.347Z,24.30
2022-12-08T17:24:54.020Z,23.20
2022-12-08T17:27:42.842Z,24.60
2022-12-08T17:30:23.752Z,23.35
2022-12-08T17:33:11.859Z,22.42
2022-12-08T17:36:10.228Z,22.80
2022-12-08T17:39:02.764Z,23.17
2022-12-08T17:41:51.081Z,22.08
2022-12-08T17:44:41.723Z,21.92
2022-12-08T17:47:25.809Z,23.65
2022-12-08T17:50:17.366Z,22.10
2022-12-08T17:53:04.260Z,24.40
2022-12-08T17:55:54.191Z,25.23
2022-12-08T17:58:39.447Z,21.60
2022-12-08T18:01:27.281Z,18.30
2022-12-08T18:04:11.485Z,18.75
2022-12-08T18:06:55.042Z,19.05
2022-12-08T18:09:36.726Z,22.40
2022-12-08T18:12:23.418Z,20.15
2022-12-08T18:15:08.888Z,22.02
2022-12-08T18:18:04.886Z,22.42
2022-12-08T18:23:52.772Z,21.52
2022-12-08T18:26:36.281Z,22.52
2022-12-08T18:29:16.262Z,25.17
2022-12-08T18:32:00.572Z,22.97
2022-12-08T18:34:54.382Z,22.92
2022-12-08T18:37:35.978Z,27.07
2022-12-08T18:40:20.525Z,28.23
2022-12-08T18:43:06.285Z,34.10
2022-12-08T18:45:47.004Z,34.50
2022-12-08T18:48:35.767Z,34.40
2022-12-08T18:51:32.435Z,34.42
2022-12-08T18:54:27.718Z,36.15
2022-12-08T18:57:25.094Z,37.70
2022-12-08T19:00:06.478Z,43.17
2022-12-08T19:02:56.644Z,40.30
2022-12-08T19:05:44.178Z,41.47
2022-12-08T19:08:31.358Z,45.33
2022-12-08T19:11:26.553Z,43.92
2022-12-08T19:14:07.486Z,40.88
2022-12-08T19:16:46.204Z,52.47
2022-12-08T19:19:27.709Z,35.17
2022-12-08T19:22:10.082Z,33.08
2022-12-08T19:24:52.980Z,35.80
2022-12-08T19:27:34.544Z,32.03
2022-12-08T19:30:14.897Z,33.85
2022-12-08T19:33:03.688Z,29.35
2022-12-08T19:36:02.642Z,24.63
2022-12-08T19:39:08.113Z,22.75
2022-12-08T19:42:19.022Z,26.73
2022-12-08T19:45:11.224Z,29.02
2022-12-08T19:47:57.583Z,29.05
2022-12-08T19:50:41.923Z,35.38
2022-12-08T19:53:23.628Z,36.67
2022-12-08T19:56:07.353Z,40.38
2022-12-08T19:58:43.084Z,42.33
2022-12-08T20:01:33.276Z,39.97
2022-12-08T20:04:18.353Z,34.85
2022-12-08T20:07:05.456Z,36.38
2022-12-08T20:09:47.156Z,37.10
2022-12-08T20:12:34.443Z,33.08
2022-12-08T20:18:14.229Z,33.83
2022-12-08T20:20:58.361Z,36.80
2022-12-08T20:23:42.744Z,34.10
2022-12-08T20:26:20.128Z,33.60
2022-12-08T20:29:07.076Z,33.28
2022-12-08T20:31:48.101Z,33.38
2022-12-08T20:34:35.314Z,33.67
2022-12-08T20:37:10.604Z,33.03
2022-12-08T20:39:48.906Z,34.03
2022-12-08T20:42:29.198Z,34.22
2022-12-08T20:45:17.843Z,32.92
2022-12-08T20:48:02.665Z,33.33
2022-12-08T20:50:49.465Z,31.45
2022-12-08T20:53:30.904Z,33.15
2022-12-08T20:56:17.920Z,31.60
2022-12-08T20:58:59.516Z,30.80
2022-12-08T21:01:37.852Z,31.25
2022-12-08T21:04:18.061Z,31.88
2022-12-08T21:07:00.698Z,30.48
2022-12-08T21:09:47.030Z,30.80
2022-12-08T21:12:33.688Z,29.95
2022-12-08T21:15:15.514Z,31.38
2022-12-08T21:18:07.383Z,27.75
2022-12-08T21:20:56.618Z,30.00
2022-12-08T21:23:38.346Z,30.35
2022-12-08T21:26:30.321Z,29.92
2022-12-08T21:29:17.996Z,30.10
2022-12-08T21:32:02.173Z,31.73
2022-12-08T21:34:44.231Z,30.85
2022-12-08T21:37:30.797Z,30.35
2022-12-08T21:40:14.737Z,30.23
2022-12-08T21:43:01.799Z,29.95
2022-12-08T21:45:42.047Z,29.38
2022-12-08T21:48:23.097Z,30.30
2022-12-08T21:51:09.265Z,30.55
2022-12-08T21:54:01.411Z,30.80
2022-12-08T21:56:45.947Z,29.70
2022-12-08T21:59:32.150Z,29.48
2022-12-08T22:02:22.629Z,29.02
2022-12-08T22:05:07.139Z,32.65
2022-12-08T22:08:01.812Z,32.08
2022-12-08T22:11:00.496Z,30.45
2022-12-08T22:13:50.506Z,32.20
2022-12-08T22:16:27.622Z,32.72
2022-12-08T22:19:07.562Z,30.20
2022-12-08T22:21:47.745Z,32.47
2022-12-08T22:24:25.980Z,33.33
2022-12-08T22:27:04.762Z,29.42
2022-12-08T22:29:45.648Z,30.83
2022-12-08T22:32:29.379Z,31.00
2022-12-08T22:35:26.519Z,28.95
2022-12-08T22:38:21.300Z,31.30
2022-12-08T22:41:04.327Z,31.63
2022-12-08T22:43:49.766Z,29.98
2022-12-08T22:46:36.679Z,29.95
2022-12-08T22:49:26.460Z,31.20
2022-12-08T22:52:11.650Z,30.23
2022-12-08T22:54:53.846Z,30.83
2022-12-08T22:57:40.837Z,29.35
2022-12-08T23:00:29.701Z,31.73
2022-12-08T23:03:17.599Z,29.08
2022-12-08T23:05:56.059Z,30.33
2022-12-08T23:08:37.093Z,29.48
2022-12-08T23:11:22.087Z,29.88
2022-12-08T23:14:00.590Z,29.35
2022-12-08T23:16:47.204Z,28.65
2022-12-08T23:19:25.945Z,32.15
2022-12-08T23:22:04.523Z,29.90
2022-12-08T23:24:47.582Z,30.95
2022-12-08T23:27:30.524Z,38.15
2022-12-08T23:30:11.474Z,51.10
2022-12-08T23:33:14.660Z,37.88
2022-12-08T23:36:06.105Z,33.92
2022-12-08T23:38:46.648Z,31.52
2022-12-08T23:41:36.086Z,31.45
2022-12-08T23:44:14.876Z,34.13
2022-12-08T23:46:56.658Z,31.00
2022-12-08T23:49:33.521Z,33.60
2022-12-08T23:52:39.486Z,36.83
2022-12-08T23:55:31.470Z,32.42
2022-12-08T23:58:11.970Z,33.65
